createdAt,value
2019-03-18T00:00:46.486Z,959.06
2019-03-18T00:01:46.459Z,959.09
2019-03-18T00:02:46.430Z,959.14
2019-03-18T00:03:46.401Z,959.11
2019-03-18T00:04:46.372Z,959.09
2019-03-18T00:05:46.345Z,959.09
2019-03-18T00:06:46.315Z,959.09
2019-03-18T00:07:46.287Z,959.11
2019-03-18T00:08:46.258Z,959.10
2019-03-18T00:09:46.232Z,959.11
2019-03-18T00:10:46.201Z,959.16
2019-03-18T00:11:46.174Z,959.14
2019-03-18T00:12:46.143Z,959.15
2019-03-18T00:13:46.114Z,959.17
2019-03-18T00:14:46.087Z,959.17
2019-03-18T00:15:46.059Z,959.17
2019-03-18T00:16:46.029Z,959.13
2019-03-18T00:17:46.000Z,959.09
2019-03-18T00:18:45.973Z,959.09
2019-03-18T00:19:45.948Z,959.05
2019-03-18T00:20:45.919Z,959.04
2019-03-18T00:21:45.889Z,959.05
2019-03-18T00:22:45.861Z,959.06
2019-03-18T00:23:45.830Z,959.05
2019-03-18T00:24:45.799Z,959.07
2019-03-18T00:25:45.775Z,959.10
2019-03-18T00:26:45.761Z,959.07
2019-03-18T00:27:45.715Z,959.07
2019-03-18T00:28:45.688Z,959.08
2019-03-18T00:29:45.658Z,959.05
2019-03-18T00:30:45.630Z,958.99
2019-03-18T00:31:45.601Z,959.06
2019-03-18T00:32:45.575Z,959.02
2019-03-18T00:33:45.544Z,958.96
2019-03-18T00:34:45.516Z,958.98
2019-03-18T00:35:45.487Z,958.95
2019-03-18T00:36:45.456Z,958.97
2019-03-18T00:37:45.430Z,958.89
2019-03-18T00:38:45.405Z,958.93
2019-03-18T00:39:45.374Z,958.88
2019-03-18T00:40:45.343Z,958.92
2019-03-18T00:41:45.315Z,958.94
2019-03-18T00:42:45.291Z,958.92
2019-03-18T00:43:45.265Z,958.91
2019-03-18T00:44:45.235Z,958.89
2019-03-18T00:45:45.211Z,958.94
2019-03-18T00:46:45.174Z,958.95
2019-03-18T00:47:45.147Z,958.96
2019-03-18T00:48:45.118Z,958.93
2019-03-18T00:49:45.089Z,958.94
2019-03-18T00:50:45.125Z,958.97
2019-03-18T00:51:45.034Z,958.94
2019-03-18T00:52:45.027Z,958.97
2019-03-18T00:53:45.039Z,958.95
2019-03-18T00:54:44.948Z,958.95
2019-03-18T00:55:44.977Z,958.92
2019-03-18T00:56:44.892Z,958.95
2019-03-18T00:57:44.864Z,958.92
2019-03-18T00:58:44.840Z,958.91
2019-03-18T00:59:44.808Z,958.94
2019-03-18T01:00:44.779Z,958.94
2019-03-18T01:01:44.751Z,958.92
2019-03-18T01:02:44.723Z,958.95
2019-03-18T01:03:44.700Z,958.97
2019-03-18T01:04:44.672Z,958.95
2019-03-18T01:05:44.638Z,958.98
2019-03-18T01:06:44.610Z,958.94
2019-03-18T01:07:44.582Z,958.93
2019-03-18T01:08:44.553Z,958.91
2019-03-18T01:09:44.527Z,958.87
2019-03-18T01:10:44.497Z,958.90
2019-03-18T01:11:45.272Z,958.93
2019-03-18T01:12:44.439Z,958.91
2019-03-18T01:13:44.412Z,958.93
2019-03-18T01:14:44.383Z,958.93
2019-03-18T01:15:44.357Z,958.91
2019-03-18T01:16:44.326Z,958.95
2019-03-18T01:17:44.304Z,958.92
2019-03-18T01:18:44.273Z,958.95
2019-03-18T01:19:44.242Z,958.94
2019-03-18T01:20:44.212Z,958.96
2019-03-18T01:21:44.184Z,958.92
2019-03-18T01:22:44.156Z,958.87
2019-03-18T01:23:44.128Z,958.87
2019-03-18T01:24:44.098Z,958.87
2019-03-18T01:25:44.071Z,958.87
2019-03-18T01:26:44.043Z,958.91
2019-03-18T01:27:44.017Z,958.89
2019-03-18T01:28:43.986Z,958.92
2019-03-18T01:29:43.958Z,958.95
2019-03-18T01:30:43.930Z,958.92
2019-03-18T01:31:43.902Z,958.91
2019-03-18T01:32:43.872Z,958.88
2019-03-18T01:33:45.395Z,958.89
2019-03-18T01:34:43.816Z,958.87
2019-03-18T01:35:43.789Z,958.84
2019-03-18T01:36:43.761Z,958.87
2019-03-18T01:37:43.730Z,958.87
2019-03-18T01:38:43.701Z,958.83
2019-03-18T01:39:43.675Z,958.80
2019-03-18T01:40:43.645Z,958.84
2019-03-18T01:41:43.618Z,958.80
2019-03-18T01:42:43.609Z,958.78
2019-03-18T01:43:43.560Z,958.75
2019-03-18T01:44:43.532Z,958.72
2019-03-18T01:45:43.505Z,958.72
2019-03-18T01:46:43.476Z,958.71
2019-03-18T01:47:43.448Z,958.70
2019-03-18T01:48:43.418Z,958.67
2019-03-18T01:49:43.392Z,958.65
2019-03-18T01:50:43.363Z,958.68
2019-03-18T01:51:43.335Z,958.69
2019-03-18T01:52:43.305Z,958.70
2019-03-18T01:53:43.276Z,958.73
2019-03-18T01:54:43.252Z,958.73
2019-03-18T01:55:43.246Z,958.76
2019-03-18T01:56:43.192Z,958.75
2019-03-18T01:57:43.163Z,958.71
2019-03-18T01:58:43.135Z,958.67
2019-03-18T01:59:43.108Z,958.69
2019-03-18T02:00:43.878Z,958.67
2019-03-18T02:01:43.050Z,958.68
2019-03-18T02:02:43.023Z,958.71
2019-03-18T02:03:42.995Z,958.69
2019-03-18T02:04:42.967Z,958.74
2019-03-18T02:05:42.937Z,958.69
2019-03-18T02:06:42.911Z,958.68
2019-03-18T02:07:42.882Z,958.70
2019-03-18T02:08:42.851Z,958.71
2019-03-18T02:09:42.824Z,958.69
2019-03-18T02:10:42.800Z,958.71
2019-03-18T02:11:42.767Z,958.72
2019-03-18T02:12:42.739Z,958.68
2019-03-18T02:13:42.710Z,958.67
2019-03-18T02:14:42.682Z,958.68
2019-03-18T02:15:52.772Z,958.65
2019-03-18T02:16:42.628Z,958.67
2019-03-18T02:17:42.600Z,958.64
2019-03-18T02:18:42.569Z,958.61
2019-03-18T02:19:42.543Z,958.64
2019-03-18T02:20:42.513Z,958.63
2019-03-18T02:21:42.483Z,958.65
2019-03-18T02:22:43.210Z,958.64
2019-03-18T02:23:42.431Z,958.65
2019-03-18T02:24:42.400Z,958.65
2019-03-18T02:25:42.371Z,958.65
2019-03-18T02:26:42.344Z,958.62
2019-03-18T02:27:42.316Z,958.62
2019-03-18T02:28:42.287Z,958.60
2019-03-18T02:29:42.262Z,958.60
2019-03-18T02:30:42.233Z,958.63
2019-03-18T02:31:42.226Z,958.64
2019-03-18T02:32:42.181Z,958.66
2019-03-18T02:33:45.900Z,958.64
2019-03-18T02:34:42.131Z,958.65
2019-03-18T02:35:42.096Z,958.63
2019-03-18T02:36:42.065Z,958.62
2019-03-18T02:37:42.050Z,958.65
2019-03-18T02:38:42.005Z,958.65
2019-03-18T02:39:42.729Z,958.65
2019-03-18T02:40:41.953Z,958.68
2019-03-18T02:41:41.946Z,958.68
2019-03-18T02:42:41.895Z,958.62
2019-03-18T02:43:41.867Z,958.60
2019-03-18T02:44:41.837Z,958.62
2019-03-18T02:45:41.808Z,958.65
2019-03-18T02:46:41.781Z,958.62
2019-03-18T02:47:41.754Z,958.65
2019-03-18T02:48:41.724Z,958.70
2019-03-18T02:49:41.707Z,958.71
2019-03-18T02:50:41.668Z,958.65
2019-03-18T02:51:41.644Z,958.66
2019-03-18T02:52:41.618Z,958.62
2019-03-18T02:53:41.594Z,958.67
2019-03-18T02:54:41.646Z,958.65
2019-03-18T02:55:41.534Z,958.63
2019-03-18T02:56:41.501Z,958.66
2019-03-18T02:57:41.473Z,958.65
2019-03-18T02:58:41.447Z,958.67
2019-03-18T02:59:41.417Z,958.69
2019-03-18T03:00:41.387Z,958.71
2019-03-18T03:01:41.359Z,958.68
2019-03-18T03:02:41.336Z,958.72
2019-03-18T03:03:41.306Z,958.74
2019-03-18T03:04:41.281Z,958.75
2019-03-18T03:05:42.752Z,958.79
2019-03-18T03:06:41.222Z,958.79
2019-03-18T03:07:41.194Z,958.76
2019-03-18T03:08:41.164Z,958.83
2019-03-18T03:09:41.139Z,958.81
2019-03-18T03:10:41.111Z,958.81
2019-03-18T03:11:41.133Z,958.78
2019-03-18T03:12:41.054Z,958.82
2019-03-18T03:13:41.026Z,958.80
2019-03-18T03:14:41.007Z,958.85
2019-03-18T03:15:40.971Z,958.81
2019-03-18T03:16:40.943Z,958.79
2019-03-18T03:17:40.924Z,958.82
2019-03-18T03:18:40.885Z,958.79
2019-03-18T03:19:40.858Z,958.83
2019-03-18T03:20:40.831Z,958.79
2019-03-18T03:21:40.802Z,958.79
2019-03-18T03:22:40.781Z,958.83
2019-03-18T03:23:40.745Z,958.81
2019-03-18T03:24:40.716Z,958.79
2019-03-18T03:25:40.693Z,958.81
2019-03-18T03:26:40.671Z,958.77
2019-03-18T03:27:40.638Z,958.77
2019-03-18T03:28:40.606Z,958.74
2019-03-18T03:29:40.578Z,958.72
2019-03-18T03:30:40.550Z,958.70
2019-03-18T03:31:40.533Z,958.65
2019-03-18T03:32:40.494Z,958.69
2019-03-18T03:33:40.497Z,958.76
2019-03-18T03:34:40.438Z,958.77
2019-03-18T03:35:40.411Z,958.82
2019-03-18T03:36:40.381Z,958.89
2019-03-18T03:37:40.496Z,958.91
2019-03-18T03:38:40.325Z,958.90
2019-03-18T03:39:40.297Z,958.88
2019-03-18T03:40:40.277Z,958.91
2019-03-18T03:41:40.253Z,958.83
2019-03-18T03:42:40.229Z,958.87
2019-03-18T03:43:40.185Z,958.90
2019-03-18T03:44:40.162Z,958.89
2019-03-18T03:45:40.128Z,958.87
2019-03-18T03:46:43.457Z,958.90
2019-03-18T03:47:40.090Z,958.88
2019-03-18T03:48:40.042Z,958.87
2019-03-18T03:49:40.015Z,958.88
2019-03-18T03:50:39.986Z,958.89
2019-03-18T03:51:40.035Z,958.96
2019-03-18T03:52:39.931Z,958.95
2019-03-18T03:53:39.902Z,959.00
2019-03-18T03:54:39.875Z,958.96
2019-03-18T03:55:39.847Z,958.93
2019-03-18T03:56:39.820Z,958.93
2019-03-18T03:57:39.796Z,958.96
2019-03-18T03:58:39.762Z,958.94
2019-03-18T03:59:39.733Z,958.91
2019-03-18T04:00:39.706Z,958.92
2019-03-18T04:01:39.675Z,958.95
2019-03-18T04:02:39.657Z,958.93
2019-03-18T04:03:39.627Z,958.93
2019-03-18T04:04:39.596Z,958.93
2019-03-18T04:05:39.568Z,958.95
2019-03-18T04:06:39.536Z,958.94
2019-03-18T04:07:39.509Z,958.93
2019-03-18T04:08:39.482Z,958.99
2019-03-18T04:09:39.473Z,958.96
2019-03-18T04:10:39.421Z,958.98
2019-03-18T04:11:39.408Z,958.99
2019-03-18T04:12:39.365Z,958.94
2019-03-18T04:13:39.338Z,958.97
2019-03-18T04:14:39.307Z,958.97
2019-03-18T04:15:39.281Z,958.95
2019-03-18T04:16:39.251Z,958.95
2019-03-18T04:17:39.225Z,958.92
2019-03-18T04:18:39.198Z,958.90
2019-03-18T04:19:39.168Z,958.90
2019-03-18T04:20:39.138Z,958.92
2019-03-18T04:21:39.111Z,958.93
2019-03-18T04:22:39.086Z,958.97
2019-03-18T04:23:39.056Z,958.93
2019-03-18T04:24:39.029Z,958.96
2019-03-18T04:25:39.105Z,958.99
2019-03-18T04:26:38.986Z,958.96
2019-03-18T04:27:38.942Z,958.99
2019-03-18T04:28:38.913Z,959.04
2019-03-18T04:29:38.886Z,959.05
2019-03-18T04:30:38.857Z,959.06
2019-03-18T04:31:38.829Z,959.07
2019-03-18T04:32:38.801Z,959.06
2019-03-18T04:33:39.264Z,959.12
2019-03-18T04:34:38.743Z,959.15
2019-03-18T04:35:38.718Z,959.17
2019-03-18T04:36:38.741Z,959.16
2019-03-18T04:37:38.660Z,959.17
2019-03-18T04:38:38.632Z,959.16
2019-03-18T04:39:38.603Z,959.16
2019-03-18T04:40:38.574Z,959.18
2019-03-18T04:41:38.547Z,959.13
2019-03-18T04:42:38.519Z,959.12
2019-03-18T04:43:38.490Z,959.14
2019-03-18T04:44:38.459Z,959.16
2019-03-18T04:45:38.436Z,959.14
2019-03-18T04:46:38.402Z,959.12
2019-03-18T04:47:38.398Z,959.15
2019-03-18T04:48:38.348Z,959.14
2019-03-18T04:49:38.320Z,959.14
2019-03-18T04:50:38.290Z,959.17
2019-03-18T04:51:38.262Z,959.16
2019-03-18T04:52:38.242Z,959.17
2019-03-18T04:53:38.204Z,959.24
2019-03-18T04:54:38.176Z,959.26
2019-03-18T04:55:38.148Z,959.26
2019-03-18T04:56:38.119Z,959.31
2019-03-18T04:57:38.092Z,959.29
2019-03-18T04:58:38.063Z,959.37
2019-03-18T04:59:38.034Z,959.33
2019-03-18T05:00:38.005Z,959.37
2019-03-18T05:01:37.976Z,959.42
2019-03-18T05:02:37.948Z,959.42
2019-03-18T05:03:37.922Z,959.44
2019-03-18T05:04:37.891Z,959.45
2019-03-18T05:05:37.864Z,959.46
2019-03-18T05:06:37.835Z,959.46
2019-03-18T05:07:37.806Z,959.48
2019-03-18T05:08:37.778Z,959.48
2019-03-18T05:09:37.748Z,959.49
2019-03-18T05:10:37.721Z,959.53
2019-03-18T05:11:37.694Z,959.56
2019-03-18T05:12:37.662Z,959.61
2019-03-18T05:13:37.639Z,959.64
2019-03-18T05:14:37.609Z,959.65
2019-03-18T05:15:37.577Z,959.68
2019-03-18T05:16:37.548Z,959.71
2019-03-18T05:17:37.522Z,959.66
2019-03-18T05:18:37.498Z,959.73
2019-03-18T05:19:37.463Z,959.74
2019-03-18T05:20:37.433Z,959.79
2019-03-18T05:21:37.411Z,959.73
2019-03-18T05:22:37.377Z,959.77
2019-03-18T05:23:37.347Z,959.73
2019-03-18T05:24:38.119Z,959.73
2019-03-18T05:25:37.291Z,959.68
2019-03-18T05:26:37.261Z,959.73
2019-03-18T05:27:37.233Z,959.77
2019-03-18T05:28:37.203Z,959.74
2019-03-18T05:29:37.176Z,959.74
2019-03-18T05:30:37.146Z,959.75
2019-03-18T05:31:37.117Z,959.77
2019-03-18T05:32:37.088Z,959.71
2019-03-18T05:33:37.060Z,959.75
2019-03-18T05:34:37.034Z,959.75
2019-03-18T05:35:37.002Z,959.79
2019-03-18T05:36:36.973Z,959.78
2019-03-18T05:37:36.948Z,959.76
2019-03-18T05:38:36.915Z,959.76
2019-03-18T05:39:36.886Z,959.75
2019-03-18T05:40:36.855Z,959.76
2019-03-18T05:41:36.827Z,959.80
2019-03-18T05:42:36.800Z,959.81
2019-03-18T05:43:36.769Z,959.83
2019-03-18T05:44:36.746Z,959.88
2019-03-18T05:45:36.712Z,959.88
2019-03-18T05:46:36.683Z,959.97
2019-03-18T05:47:39.496Z,959.98
2019-03-18T05:48:36.623Z,959.99
2019-03-18T05:49:36.594Z,959.96
2019-03-18T05:50:36.566Z,960.01
2019-03-18T05:51:37.291Z,960.03
2019-03-18T05:52:36.508Z,960.05
2019-03-18T05:53:36.479Z,960.06
2019-03-18T05:54:36.449Z,960.08
2019-03-18T05:55:36.422Z,960.13
2019-03-18T05:56:36.459Z,960.17
2019-03-18T05:57:36.363Z,960.21
2019-03-18T05:58:36.335Z,960.18
2019-03-18T05:59:36.306Z,960.30
2019-03-18T06:00:36.276Z,960.23
2019-03-18T06:01:36.248Z,960.28
2019-03-18T06:02:36.218Z,960.37
2019-03-18T06:03:36.194Z,960.33
2019-03-18T06:04:36.162Z,960.38
2019-03-18T06:05:36.131Z,960.40
2019-03-18T06:06:36.109Z,960.47
2019-03-18T06:07:36.074Z,960.44
2019-03-18T06:08:36.047Z,960.50
2019-03-18T06:09:36.016Z,960.53
2019-03-18T06:10:35.987Z,960.55
2019-03-18T06:11:35.958Z,960.62
2019-03-18T06:12:35.929Z,960.64
2019-03-18T06:13:35.918Z,960.67
2019-03-18T06:14:35.871Z,960.70
2019-03-18T06:15:35.842Z,960.70
2019-03-18T06:16:35.813Z,960.67
2019-03-18T06:17:35.784Z,960.73
2019-03-18T06:18:35.759Z,960.69
2019-03-18T06:19:35.728Z,960.76
2019-03-18T06:20:35.700Z,960.79
2019-03-18T06:21:35.670Z,960.78
2019-03-18T06:22:35.645Z,960.85
2019-03-18T06:23:35.623Z,960.90
2019-03-18T06:24:36.382Z,960.93
2019-03-18T06:25:35.554Z,960.98
2019-03-18T06:26:35.525Z,960.95
2019-03-18T06:27:35.544Z,960.97
2019-03-18T06:28:35.467Z,960.93
2019-03-18T06:29:35.438Z,960.95
2019-03-18T06:30:35.410Z,960.99
2019-03-18T06:31:35.380Z,960.99
2019-03-18T06:32:35.353Z,961.02
2019-03-18T06:33:35.323Z,961.05
2019-03-18T06:34:35.297Z,961.04
2019-03-18T06:35:35.267Z,961.06
2019-03-18T06:36:35.236Z,961.07
2019-03-18T06:37:35.207Z,961.09
2019-03-18T06:38:35.180Z,961.11
2019-03-18T06:39:35.150Z,961.13
2019-03-18T06:40:35.120Z,961.15
2019-03-18T06:41:35.096Z,961.15
2019-03-18T06:42:35.065Z,961.16
2019-03-18T06:43:35.042Z,961.13
2019-03-18T06:44:35.007Z,961.15
2019-03-18T06:45:35.731Z,961.15
2019-03-18T06:46:34.950Z,961.17
2019-03-18T06:47:34.923Z,961.23
2019-03-18T06:48:34.893Z,961.20
2019-03-18T06:49:34.866Z,961.19
2019-03-18T06:50:34.836Z,961.24
2019-03-18T06:51:36.308Z,961.24
2019-03-18T06:52:34.779Z,961.28
2019-03-18T06:53:34.754Z,961.31
2019-03-18T06:54:34.723Z,961.39
2019-03-18T06:55:34.694Z,961.34
2019-03-18T06:56:34.666Z,961.35
2019-03-18T06:57:34.638Z,961.41
2019-03-18T06:58:34.610Z,961.41
2019-03-18T06:59:34.582Z,961.39
2019-03-18T07:00:34.553Z,961.35
2019-03-18T07:01:34.526Z,961.38
2019-03-18T07:02:34.498Z,961.44
2019-03-18T07:03:34.469Z,961.43
2019-03-18T07:04:34.441Z,961.46
2019-03-18T07:05:34.412Z,961.50
2019-03-18T07:06:34.383Z,961.44
2019-03-18T07:07:34.359Z,961.46
2019-03-18T07:08:34.378Z,961.47
2019-03-18T07:09:34.299Z,961.41
2019-03-18T07:10:34.272Z,961.46
2019-03-18T07:11:34.248Z,961.48
2019-03-18T07:12:34.218Z,961.45
2019-03-18T07:13:34.188Z,961.41
2019-03-18T07:14:34.161Z,961.49
2019-03-18T07:15:34.133Z,961.49
2019-03-18T07:16:34.105Z,961.48
2019-03-18T07:17:34.080Z,961.53
2019-03-18T07:18:34.049Z,961.56
2019-03-18T07:19:34.021Z,961.56
2019-03-18T07:20:33.993Z,961.55
2019-03-18T07:21:33.964Z,961.55
2019-03-18T07:22:33.937Z,961.59
2019-03-18T07:23:33.909Z,961.63
2019-03-18T07:24:33.885Z,961.64
2019-03-18T07:25:33.852Z,961.66
2019-03-18T07:26:33.826Z,961.63
2019-03-18T07:27:33.797Z,961.71
2019-03-18T07:28:33.788Z,961.74
2019-03-18T07:29:33.740Z,961.73
2019-03-18T07:30:33.712Z,961.73
2019-03-18T07:31:33.684Z,961.76
2019-03-18T07:32:33.656Z,961.76
2019-03-18T07:33:33.628Z,961.82
2019-03-18T07:34:33.602Z,961.77
2019-03-18T07:35:33.571Z,961.83
2019-03-18T07:36:33.543Z,961.83
2019-03-18T07:37:33.516Z,961.82
2019-03-18T07:38:33.488Z,961.80
2019-03-18T07:39:33.460Z,961.83
2019-03-18T07:40:33.437Z,961.82
2019-03-18T07:41:33.403Z,961.86
2019-03-18T07:42:33.375Z,961.82
2019-03-18T07:43:33.348Z,961.86
2019-03-18T07:44:33.318Z,961.92
2019-03-18T07:45:33.290Z,961.93
2019-03-18T07:46:33.329Z,961.91
2019-03-18T07:47:33.235Z,961.90
2019-03-18T07:48:33.206Z,961.96
2019-03-18T07:49:33.178Z,961.98
2019-03-18T07:50:33.152Z,961.98
2019-03-18T07:51:33.123Z,962.01
2019-03-18T07:52:33.095Z,961.99
2019-03-18T07:53:33.066Z,961.97
2019-03-18T07:54:33.359Z,962.02
2019-03-18T07:55:33.012Z,962.06
2019-03-18T07:56:32.982Z,962.02
2019-03-18T07:57:32.957Z,962.05
2019-03-18T07:58:32.935Z,962.06
2019-03-18T07:59:32.901Z,962.04
2019-03-18T08:00:32.872Z,962.03
2019-03-18T08:01:32.845Z,962.01
2019-03-18T08:02:32.816Z,962.05
2019-03-18T08:03:32.793Z,962.03
2019-03-18T08:04:37.557Z,962.03
2019-03-18T08:05:32.741Z,962.09
2019-03-18T08:06:32.707Z,962.11
2019-03-18T08:07:32.678Z,962.10
2019-03-18T08:08:32.756Z,962.09
2019-03-18T08:09:32.624Z,962.07
2019-03-18T08:10:32.602Z,962.13
2019-03-18T08:11:32.569Z,962.15
2019-03-18T08:12:32.540Z,962.14
2019-03-18T08:13:32.515Z,962.14
2019-03-18T08:14:32.487Z,962.15
2019-03-18T08:15:32.460Z,962.14
2019-03-18T08:16:32.431Z,962.17
2019-03-18T08:17:32.402Z,962.16
2019-03-18T08:18:42.705Z,962.14
2019-03-18T08:19:32.347Z,962.17
2019-03-18T08:20:32.320Z,962.21
2019-03-18T08:21:32.292Z,962.20
2019-03-18T08:22:32.270Z,962.19
2019-03-18T08:23:32.237Z,962.16
2019-03-18T08:24:32.209Z,962.21
2019-03-18T08:25:32.183Z,962.23
2019-03-18T08:26:32.157Z,962.26
2019-03-18T08:27:32.130Z,962.28
2019-03-18T08:28:32.100Z,962.31
2019-03-18T08:29:32.074Z,962.38
2019-03-18T08:30:32.046Z,962.37
2019-03-18T08:31:32.019Z,962.36
2019-03-18T08:32:31.990Z,962.39
2019-03-18T08:33:31.978Z,962.36
2019-03-18T08:34:31.937Z,962.39
2019-03-18T08:35:31.909Z,962.36
2019-03-18T08:36:31.881Z,962.40
2019-03-18T08:37:31.857Z,962.39
2019-03-18T08:38:31.827Z,962.42
2019-03-18T08:39:31.804Z,962.53
2019-03-18T08:40:31.773Z,962.55
2019-03-18T08:41:31.745Z,962.58
2019-03-18T08:42:31.719Z,962.59
2019-03-18T08:43:31.691Z,962.63
2019-03-18T08:44:31.664Z,962.61
2019-03-18T08:45:31.637Z,962.62
2019-03-18T08:46:31.610Z,962.61
2019-03-18T08:47:31.583Z,962.63
2019-03-18T08:48:31.555Z,962.59
2019-03-18T08:49:31.527Z,962.63
2019-03-18T08:50:31.554Z,962.57
2019-03-18T08:51:31.474Z,962.61
2019-03-18T08:52:31.447Z,962.62
2019-03-18T08:53:31.419Z,962.67
2019-03-18T08:54:31.393Z,962.59
2019-03-18T08:55:31.373Z,962.54
2019-03-18T08:56:31.337Z,962.58
2019-03-18T08:57:31.311Z,962.58
2019-03-18T08:58:31.283Z,962.58
2019-03-18T08:59:31.256Z,962.56
2019-03-18T09:00:31.230Z,962.61
2019-03-18T09:01:31.202Z,962.52
2019-03-18T09:02:31.176Z,962.55
2019-03-18T09:03:31.151Z,962.51
2019-03-18T09:04:31.121Z,962.59
2019-03-18T09:05:31.094Z,962.58
2019-03-18T09:06:31.076Z,962.65
2019-03-18T09:07:31.040Z,962.61
2019-03-18T09:08:31.014Z,962.65
2019-03-18T09:09:30.986Z,962.60
2019-03-18T09:10:30.959Z,962.60
2019-03-18T09:11:30.933Z,962.65
2019-03-18T09:12:30.904Z,962.65
2019-03-18T09:13:32.069Z,962.67
2019-03-18T09:14:30.850Z,962.65
2019-03-18T09:15:30.823Z,962.65
2019-03-18T09:16:30.796Z,962.71
2019-03-18T09:17:30.769Z,962.65
2019-03-18T09:18:30.743Z,962.74
2019-03-18T09:19:30.714Z,962.69
2019-03-18T09:20:30.688Z,962.67
2019-03-18T09:21:30.659Z,962.68
2019-03-18T09:22:32.985Z,962.71
2019-03-18T09:23:30.605Z,962.71
2019-03-18T09:24:30.578Z,962.72
2019-03-18T09:25:30.551Z,962.76
2019-03-18T09:26:30.524Z,962.76
2019-03-18T09:27:30.499Z,962.73
2019-03-18T09:28:30.471Z,962.82
2019-03-18T09:29:30.443Z,962.78
2019-03-18T09:30:30.416Z,962.77
2019-03-18T09:31:30.422Z,962.82
2019-03-18T09:32:30.361Z,962.75
2019-03-18T09:33:30.335Z,962.78
2019-03-18T09:34:30.309Z,962.75
2019-03-18T09:35:30.283Z,962.77
2019-03-18T09:36:30.255Z,962.79
2019-03-18T09:37:30.228Z,962.78
2019-03-18T09:38:30.200Z,962.86
2019-03-18T09:39:30.175Z,962.88
2019-03-18T09:40:30.150Z,962.91
2019-03-18T09:41:30.126Z,962.87
2019-03-18T09:42:30.094Z,962.91
2019-03-18T09:43:30.068Z,962.97
2019-03-18T09:44:30.048Z,962.97
2019-03-18T09:45:30.016Z,962.97
2019-03-18T09:46:29.988Z,962.99
2019-03-18T09:47:29.962Z,963.01
2019-03-18T09:48:29.936Z,962.96
2019-03-18T09:49:30.663Z,962.94
2019-03-18T09:50:29.883Z,962.97
2019-03-18T09:51:29.858Z,962.96
2019-03-18T09:52:29.831Z,962.92
2019-03-18T09:53:29.803Z,962.90
2019-03-18T09:54:29.778Z,962.92
2019-03-18T09:55:29.752Z,962.92
2019-03-18T09:56:29.726Z,962.91
2019-03-18T09:57:29.700Z,962.91
2019-03-18T09:58:29.674Z,962.90
2019-03-18T09:59:29.647Z,962.91
2019-03-18T10:00:29.623Z,962.94
2019-03-18T10:01:29.595Z,962.89
2019-03-18T10:02:29.570Z,962.87
2019-03-18T10:03:29.544Z,962.88
2019-03-18T10:04:29.520Z,962.91
2019-03-18T10:05:30.294Z,962.90
2019-03-18T10:06:29.465Z,962.91
2019-03-18T10:07:29.440Z,962.91
2019-03-18T10:08:29.414Z,962.92
2019-03-18T10:09:29.389Z,962.90
2019-03-18T10:10:29.388Z,962.88
2019-03-18T10:11:29.338Z,962.86
2019-03-18T10:12:29.309Z,962.83
2019-03-18T10:13:29.283Z,962.85
2019-03-18T10:14:29.258Z,962.84
2019-03-18T10:15:29.232Z,962.86
2019-03-18T10:16:30.756Z,962.89
2019-03-18T10:17:29.179Z,962.91
2019-03-18T10:18:29.153Z,962.92
2019-03-18T10:19:33.682Z,962.91
2019-03-18T10:20:29.100Z,962.89
2019-03-18T10:21:29.077Z,962.89
2019-03-18T10:22:29.851Z,962.88
2019-03-18T10:23:29.023Z,962.89
2019-03-18T10:24:28.997Z,962.92
2019-03-18T10:25:28.971Z,962.93
2019-03-18T10:26:28.945Z,962.95
2019-03-18T10:27:28.920Z,962.93
2019-03-18T10:28:28.893Z,962.91
2019-03-18T10:29:28.868Z,962.94
2019-03-18T10:30:28.847Z,962.93
2019-03-18T10:31:28.819Z,962.96
2019-03-18T10:32:28.788Z,962.94
2019-03-18T10:33:28.763Z,962.96
2019-03-18T10:34:28.738Z,962.94
2019-03-18T10:35:28.712Z,963.02
2019-03-18T10:36:28.687Z,963.01
2019-03-18T10:37:28.658Z,963.00
2019-03-18T10:38:28.684Z,963.00
2019-03-18T10:39:28.618Z,962.99
2019-03-18T10:40:28.581Z,962.96
2019-03-18T10:41:28.560Z,962.98
2019-03-18T10:42:28.530Z,963.01
2019-03-18T10:43:28.508Z,963.05
2019-03-18T10:44:28.478Z,963.06
2019-03-18T10:45:28.457Z,963.05
2019-03-18T10:46:28.431Z,963.01
2019-03-18T10:47:28.402Z,963.03
2019-03-18T10:48:28.379Z,962.99
2019-03-18T10:49:28.351Z,963.04
2019-03-18T10:50:28.339Z,963.04
2019-03-18T10:51:28.301Z,962.98
2019-03-18T10:52:28.311Z,962.98
2019-03-18T10:53:28.280Z,963.02
2019-03-18T10:54:31.211Z,963.00
2019-03-18T10:55:28.200Z,963.03
2019-03-18T10:56:28.174Z,963.02
2019-03-18T10:57:28.148Z,963.01
2019-03-18T10:58:28.123Z,963.02
2019-03-18T10:59:28.098Z,963.04
2019-03-18T11:00:28.073Z,963.05
2019-03-18T11:01:28.053Z,963.09
2019-03-18T11:02:28.022Z,963.11
2019-03-18T11:03:28.004Z,963.07
2019-03-18T11:04:27.972Z,963.09
2019-03-18T11:05:27.948Z,963.05
2019-03-18T11:06:27.923Z,963.08
2019-03-18T11:07:27.898Z,963.07
2019-03-18T11:08:27.874Z,963.08
2019-03-18T11:09:28.596Z,963.12
2019-03-18T11:10:27.821Z,963.19
2019-03-18T11:11:27.796Z,963.20
2019-03-18T11:12:27.770Z,963.17
2019-03-18T11:13:27.744Z,963.17
2019-03-18T11:14:27.719Z,963.19
2019-03-18T11:15:27.694Z,963.17
2019-03-18T11:16:27.667Z,963.16
2019-03-18T11:17:27.645Z,963.15
2019-03-18T11:18:27.618Z,963.19
2019-03-18T11:19:27.593Z,963.17
2019-03-18T11:20:27.567Z,963.15
2019-03-18T11:21:27.542Z,963.17
2019-03-18T11:22:27.517Z,963.19
2019-03-18T11:23:27.492Z,963.16
2019-03-18T11:24:27.467Z,963.15
2019-03-18T11:25:27.441Z,963.14
2019-03-18T11:26:27.431Z,963.17
2019-03-18T11:27:27.396Z,963.18
2019-03-18T11:28:27.369Z,963.18
2019-03-18T11:29:27.345Z,963.18
2019-03-18T11:30:27.319Z,963.20
2019-03-18T11:31:27.293Z,963.14
2019-03-18T11:32:27.271Z,963.06
2019-03-18T11:33:28.496Z,963.10
2019-03-18T11:34:27.221Z,963.10
2019-03-18T11:35:27.196Z,963.09
2019-03-18T11:36:27.171Z,963.08
2019-03-18T11:37:27.147Z,963.11
2019-03-18T11:38:27.124Z,963.12
2019-03-18T11:39:27.099Z,963.13
2019-03-18T11:40:27.074Z,963.10
2019-03-18T11:41:27.058Z,963.09
2019-03-18T11:42:27.026Z,963.10
2019-03-18T11:43:27.005Z,963.09
2019-03-18T11:44:26.978Z,963.07
2019-03-18T11:45:26.956Z,963.09
2019-03-18T11:46:26.928Z,963.11
2019-03-18T11:47:26.904Z,963.11
2019-03-18T11:48:26.879Z,963.11
2019-03-18T11:49:38.787Z,963.12
2019-03-18T11:50:26.831Z,963.07
2019-03-18T11:51:26.807Z,963.11
2019-03-18T11:52:26.787Z,963.10
2019-03-18T11:53:26.758Z,963.09
2019-03-18T11:54:26.859Z,963.06
2019-03-18T11:55:26.710Z,963.08
2019-03-18T11:56:26.685Z,963.05
2019-03-18T11:57:26.665Z,963.03
2019-03-18T11:58:26.652Z,963.09
2019-03-18T11:59:26.614Z,963.05
2019-03-18T12:00:26.592Z,963.04
2019-03-18T12:01:26.564Z,963.03
2019-03-18T12:02:27.897Z,963.03
2019-03-18T12:03:26.518Z,963.04
2019-03-18T12:04:26.493Z,963.01
2019-03-18T12:05:26.468Z,962.99
2019-03-18T12:06:26.443Z,962.96
2019-03-18T12:07:26.424Z,962.95
2019-03-18T12:08:27.896Z,962.94
2019-03-18T12:09:26.375Z,962.93
2019-03-18T12:10:26.365Z,962.98
2019-03-18T12:11:26.324Z,962.97
2019-03-18T12:12:26.299Z,962.96
2019-03-18T12:13:26.276Z,963.00
2019-03-18T12:14:28.602Z,963.05
2019-03-18T12:15:26.233Z,963.03
2019-03-18T12:16:26.203Z,962.97
2019-03-18T12:17:28.411Z,962.99
2019-03-18T12:18:26.155Z,963.01
2019-03-18T12:19:26.135Z,962.98
2019-03-18T12:20:27.606Z,962.97
2019-03-18T12:21:26.084Z,962.99
2019-03-18T12:22:26.057Z,963.03
2019-03-18T12:23:26.033Z,962.99
2019-03-18T12:24:26.007Z,962.94
2019-03-18T12:25:25.981Z,962.93
2019-03-18T12:26:28.962Z,962.87
2019-03-18T12:27:25.933Z,962.83
2019-03-18T12:28:25.910Z,962.77